Kantner, PA (15548)

4:28 PM EDT on May 29, 2015 (GMT -0400)
Stoystown | | Change Station
CLOSE
Current Station
Personal Weather Station
Location: Stoystown, PA
Elevation: 2172 ft
Nearby Weather Stations

Elev 2172 ft 40.11 °N, 78.94 °W | Updated 5 seconds ago

Partly Cloudy
Partly Cloudy
81.1 °F
Feels Like 79 °F
N
7.6
Wind Variable Wind from South
Gusts 12.1 mph

Today
High -- | Low -- °F
--% Chance of Precip.
Yesterday
High -- | Low -- °F
Precip. -- in
5:50 AM 8:36 PM
Waxing Gibbous, 85% visible
Pressure 30.20 in
Visibility 10.0 miles
Clouds Scattered Clouds 3800 ft
Mostly Cloudy 4600 ft
Heat Index 79 °F
Dew Point 20 °F
Humidity 10%
Rainfall 0.00 in
Snow Depth Not available.
UV 4 out of 12
Pollen 8.80 out of 12
Air Quality Not available.
Flu Activity Sporadic
METAR KJST 291954Z AUTO 17011KT 10SM SCT038 BKN046 26/16 A3024 RMK AO2 SLP225 T02560161

More Conditions Fewer Conditions

Pressure 30.20 in
Visibility 10.0 miles
Clouds Scattered Clouds 3800 ft
Mostly Cloudy 4600 ft
Heat Index 79 °F
Dew Point 20 °F
Humidity 10%
Rainfall 0.00 in
Snow Depth Not available.
UV 4 out of 12
Pollen 8.80 out of 12
Air Quality Not available.
Flu Activity Sporadic
METAR KJST 291954Z AUTO 17011KT 10SM SCT038 BKN046 26/16 A3024 RMK AO2 SLP225 T02560161

More Conditions Fewer Conditions

Nowcast | as of 4:18 PM EDT on May 29, 2015

Widely scattered showers and thunderstorms will be across the Laurel Highlands through the early evening hours. Most of the activity will be west of an Ebensburg...Bedford line through 730 PM. Some storms will contain brief torrential downpours. The showers and thunderstorms are moving north at 10 mph.

×

10-Day Weather Forecast

Almanac

Astronomy

May. 29, 2015 Rise Set
Actual Time
Civil Twilight
Nautical Twilight
Astronomical Twilight
Moon
Length of Visible Light
Length of Day
Tomorrow will be .
, % of the Moon is Illuminated

Today's Extremes

State Highs State Lows

Community

WunderPhotos

Upload Photos

1,825,331 photos uploaded!

WunderBlogs® & News

Nearby

Air Quality

  Air Quality AQ Index Pollutant
Not available.

Snow Depth

Station Depth Elevation

Earthquake Activity

City Distance Mag. Time & Date
Minimum magnitude displayed is 2.5.

Coastal Water Temperatures

Place Temperature

Stations

Nearby Weather Stations

Station Location Temp. Windchill Dew Point Humidity Wind Precip. Elev Updated Type